DAL2459 KLAX-KPDX
Flight info
| Callsign | DAL2459 |
|---|---|
| Flight time | 1h 58m |
| Altitude | 36000 |
| Route | LADYJ4 CSTRO SHIMR LMT MOXEE TMBRS4 |
| Aircraft | A319/M-SDE3FGHIRWY/LB1 |
Departure
| Time | 2026-05-08 00:06 |
|---|---|
| Airport | Los Angeles International Airport (KLAX) |
Arrival
| Time | 2026-05-08 02:04 |
|---|---|
| Airport | Portland International Airport (KPDX) |
| Time | Latitude | Longitude | Altitude | Speed | Heading |
|---|---|---|---|---|---|
| 2026-05-07 23:27 | 33.94711 | -118.40351 | 136 ft | 0 kts | 228° |
| 2026-05-07 23:53 | 33.94718 | -118.40342 | 136 ft | 3 kts | 234° |
| 2026-05-07 23:54 | 33.94730 | -118.40317 | 136 ft | 3 kts | 237° |
| 2026-05-07 23:54 | 33.94741 | -118.40296 | 136 ft | 3 kts | 252° |
| 2026-05-07 23:54 | 33.94742 | -118.40277 | 136 ft | 3 kts | 304° |
| 2026-05-07 23:54 | 33.94729 | -118.40269 | 136 ft | 3 kts | 353° |
| 2026-05-07 23:55 | 33.94704 | -118.40265 | 136 ft | 3 kts | 353° |
| 2026-05-07 23:55 | 33.94691 | -118.40263 | 136 ft | 6 kts | 353° |
| 2026-05-07 23:58 | 33.94692 | -118.40263 | 136 ft | 0 kts | 353° |
| 2026-05-08 00:02 | 33.94693 | -118.40263 | 136 ft | 0 kts | 353° |
| 2026-05-08 00:03 | 33.94701 | -118.40265 | 136 ft | 3 kts | 353° |
| 2026-05-08 00:03 | 33.94742 | -118.40270 | 136 ft | 9 kts | 354° |
| 2026-05-08 00:04 | 33.94819 | -118.40293 | 136 ft | 13 kts | 343° |
| 2026-05-08 00:04 | 33.94895 | -118.40265 | 136 ft | 10 kts | 65° |
| 2026-05-08 00:04 | 33.94908 | -118.40175 | 136 ft | 12 kts | 83° |
| 2026-05-08 00:04 | 33.94919 | -118.40068 | 136 ft | 14 kts | 83° |
| 2026-05-08 00:05 | 33.94946 | -118.39951 | 136 ft | 14 kts | 48° |
| 2026-05-08 00:05 | 33.95031 | -118.39948 | 136 ft | 12 kts | 314° |
| 2026-05-08 00:05 | 33.95032 | -118.40034 | 136 ft | 11 kts | 264° |
| 2026-05-08 00:05 | 33.95015 | -118.40223 | 136 ft | 43 kts | 263° |
| 2026-05-08 00:06 | 33.94951 | -118.40833 | 136 ft | 103 kts | 262° |
| 2026-05-08 00:06 | 33.94838 | -118.41903 | 138 ft | 154 kts | 261° |
| 2026-05-08 00:06 | 33.94696 | -118.43274 | 510 ft | 170 kts | 261° |
| 2026-05-08 00:06 | 33.94562 | -118.44649 | 1373 ft | 162 kts | 261° |
| 2026-05-08 00:07 | 33.94420 | -118.46027 | 1903 ft | 173 kts | 262° |
| 2026-05-08 00:07 | 33.94309 | -118.47560 | 2176 ft | 200 kts | 266° |
| 2026-05-08 00:07 | 33.94247 | -118.49334 | 2525 ft | 224 kts | 268° |
| 2026-05-08 00:07 | 33.94174 | -118.51285 | 2990 ft | 241 kts | 266° |
| 2026-05-08 00:08 | 33.94046 | -118.53357 | 3549 ft | 254 kts | 265° |
| 2026-05-08 00:08 | 33.93892 | -118.55502 | 4233 ft | 260 kts | 265° |
| 2026-05-08 00:08 | 33.93726 | -118.57701 | 4916 ft | 266 kts | 265° |
| 2026-05-08 00:08 | 33.93553 | -118.59936 | 5652 ft | 270 kts | 265° |
| 2026-05-08 00:09 | 33.93604 | -118.62210 | 6305 ft | 276 kts | 283° |
| 2026-05-08 00:09 | 33.94451 | -118.64259 | 7036 ft | 276 kts | 308° |
| 2026-05-08 00:09 | 33.95864 | -118.65842 | 7661 ft | 282 kts | 322° |
| 2026-05-08 00:09 | 33.97540 | -118.67166 | 7867 ft | 290 kts | 329° |
| 2026-05-08 00:10 | 33.99386 | -118.68059 | 7964 ft | 285 kts | 347° |
| 2026-05-08 00:10 | 34.01357 | -118.68249 | 7997 ft | 285 kts | 360° |
| 2026-05-08 00:10 | 34.03341 | -118.68096 | 7992 ft | 286 kts | 5° |
| 2026-05-08 00:10 | 34.05315 | -118.67829 | 7989 ft | 284 kts | 6° |
| 2026-05-08 00:11 | 34.07278 | -118.67544 | 7983 ft | 285 kts | 6° |
| 2026-05-08 00:11 | 34.09235 | -118.67166 | 7981 ft | 284 kts | 11° |
| 2026-05-08 00:11 | 34.11163 | -118.66650 | 7980 ft | 284 kts | 13° |
| 2026-05-08 00:11 | 34.13083 | -118.66092 | 8130 ft | 283 kts | 13° |
| 2026-05-08 00:12 | 34.15024 | -118.65531 | 8573 ft | 289 kts | 13° |
| 2026-05-08 00:12 | 34.16966 | -118.64992 | 9253 ft | 290 kts | 12° |
| 2026-05-08 00:12 | 34.18939 | -118.64462 | 9904 ft | 291 kts | 12° |
| 2026-05-08 00:12 | 34.20944 | -118.63953 | 10323 ft | 302 kts | 11° |
| 2026-05-08 00:13 | 34.23064 | -118.63433 | 10510 ft | 320 kts | 11° |
| 2026-05-08 00:13 | 34.25338 | -118.63164 | 10655 ft | 338 kts | 360° |
| 2026-05-08 00:13 | 34.27737 | -118.63403 | 10824 ft | 354 kts | 352° |
| 2026-05-08 00:13 | 34.30178 | -118.63959 | 11308 ft | 358 kts | 348° |
| 2026-05-08 00:14 | 34.32599 | -118.64652 | 12004 ft | 357 kts | 347° |
| 2026-05-08 00:14 | 34.35020 | -118.65381 | 12568 ft | 360 kts | 347° |
| 2026-05-08 00:14 | 34.37467 | -118.66105 | 13109 ft | 364 kts | 347° |
| 2026-05-08 00:14 | 34.39948 | -118.66798 | 13728 ft | 367 kts | 348° |
| 2026-05-08 00:15 | 34.42451 | -118.67450 | 14389 ft | 369 kts | 349° |
| 2026-05-08 00:15 | 34.44986 | -118.68041 | 14976 ft | 373 kts | 351° |
| 2026-05-08 00:15 | 34.47549 | -118.68567 | 15661 ft | 375 kts | 352° |
| 2026-05-08 00:15 | 34.50142 | -118.69048 | 16296 ft | 379 kts | 352° |
| 2026-05-08 00:16 | 34.52760 | -118.69511 | 16943 ft | 381 kts | 352° |
| 2026-05-08 00:16 | 34.55395 | -118.69991 | 17551 ft | 384 kts | 352° |
| 2026-05-08 00:16 | 34.58049 | -118.70487 | 18135 ft | 387 kts | 352° |
| 2026-05-08 00:16 | 34.60690 | -118.70986 | 18683 ft | 391 kts | 352° |
| 2026-05-08 00:17 | 34.63391 | -118.71500 | 19226 ft | 394 kts | 352° |
| 2026-05-08 00:17 | 34.66114 | -118.72020 | 19741 ft | 398 kts | 352° |
| 2026-05-08 00:17 | 34.68860 | -118.72546 | 20276 ft | 400 kts | 352° |
| 2026-05-08 00:17 | 34.71622 | -118.73156 | 20722 ft | 405 kts | 346° |
| 2026-05-08 00:18 | 34.74291 | -118.74280 | 21223 ft | 409 kts | 338° |
| 2026-05-08 00:18 | 34.76865 | -118.75801 | 21670 ft | 413 kts | 333° |
| 2026-05-08 00:18 | 34.79362 | -118.77570 | 22156 ft | 416 kts | 330° |
| 2026-05-08 00:18 | 34.81824 | -118.79449 | 22533 ft | 420 kts | 329° |
| 2026-05-08 00:19 | 34.84293 | -118.81368 | 22985 ft | 422 kts | 329° |
| 2026-05-08 00:19 | 34.86791 | -118.83281 | 23376 ft | 425 kts | 329° |
| 2026-05-08 00:19 | 34.89292 | -118.85138 | 23784 ft | 428 kts | 330° |
| 2026-05-08 00:19 | 34.91866 | -118.86984 | 24164 ft | 431 kts | 331° |
| 2026-05-08 00:20 | 34.94468 | -118.88803 | 24576 ft | 432 kts | 332° |
| 2026-05-08 00:20 | 34.97109 | -118.90601 | 24948 ft | 435 kts | 332° |
| 2026-05-08 00:20 | 34.99755 | -118.92396 | 25352 ft | 436 kts | 332° |
| 2026-05-08 00:20 | 35.02418 | -118.94205 | 25713 ft | 439 kts | 332° |
| 2026-05-08 00:21 | 35.05094 | -118.96021 | 26100 ft | 440 kts | 332° |
| 2026-05-08 00:21 | 35.07780 | -118.97844 | 26447 ft | 443 kts | 332° |
| 2026-05-08 00:21 | 35.10475 | -118.99674 | 26817 ft | 444 kts | 332° |
| 2026-05-08 00:21 | 35.13159 | -119.01523 | 27284 ft | 442 kts | 332° |
| 2026-05-08 00:22 | 35.15822 | -119.03381 | 27799 ft | 439 kts | 331° |
| 2026-05-08 00:22 | 35.18467 | -119.05237 | 28246 ft | 438 kts | 331° |
| 2026-05-08 00:22 | 35.21111 | -119.07079 | 28694 ft | 436 kts | 332° |
| 2026-05-08 00:22 | 35.23753 | -119.08903 | 29119 ft | 436 kts | 331° |
| 2026-05-08 00:23 | 35.26351 | -119.10709 | 29590 ft | 433 kts | 331° |
| 2026-05-08 00:23 | 35.28965 | -119.12535 | 30020 ft | 432 kts | 331° |
| 2026-05-08 00:23 | 35.31574 | -119.14360 | 30410 ft | 431 kts | 331° |
| 2026-05-08 00:23 | 35.34184 | -119.16168 | 30807 ft | 430 kts | 332° |
| 2026-05-08 00:24 | 35.36781 | -119.17968 | 31179 ft | 429 kts | 331° |
| 2026-05-08 00:24 | 35.39372 | -119.19771 | 31500 ft | 429 kts | 331° |
| 2026-05-08 00:24 | 35.41964 | -119.21578 | 31846 ft | 428 kts | 331° |
| 2026-05-08 00:24 | 35.44571 | -119.23341 | 32184 ft | 427 kts | 335° |
| 2026-05-08 00:25 | 35.47320 | -119.24720 | 32457 ft | 427 kts | 342° |
| 2026-05-08 00:25 | 35.50156 | -119.25741 | 32808 ft | 424 kts | 346° |
| 2026-05-08 00:25 | 35.53036 | -119.26525 | 33113 ft | 423 kts | 349° |
| 2026-05-08 00:25 | 35.55932 | -119.27191 | 33383 ft | 423 kts | 350° |
| 2026-05-08 00:26 | 35.58834 | -119.27837 | 33623 ft | 424 kts | 350° |
| 2026-05-08 00:26 | 35.61724 | -119.28516 | 33934 ft | 422 kts | 349° |
| 2026-05-08 00:26 | 35.64598 | -119.29252 | 34209 ft | 421 kts | 348° |
| 2026-05-08 00:26 | 35.67456 | -119.30049 | 34470 ft | 421 kts | 347° |
| 2026-05-08 00:27 | 35.70293 | -119.30886 | 34766 ft | 419 kts | 347° |
| 2026-05-08 00:27 | 35.73119 | -119.31762 | 35001 ft | 418 kts | 346° |
| 2026-05-08 00:27 | 35.75933 | -119.32660 | 35240 ft | 418 kts | 346° |
| 2026-05-08 00:27 | 35.78741 | -119.33543 | 35560 ft | 415 kts | 346° |
| 2026-05-08 00:28 | 35.81542 | -119.34411 | 35714 ft | 416 kts | 346° |
| 2026-05-08 00:28 | 35.84353 | -119.35273 | 35896 ft | 416 kts | 346° |
| 2026-05-08 00:28 | 35.90010 | -119.36990 | 36006 ft | 420 kts | 346° |
| 2026-05-08 00:29 | 35.95666 | -119.38714 | 36010 ft | 417 kts | 346° |
| 2026-05-08 00:29 | 36.01230 | -119.40414 | 36011 ft | 413 kts | 346° |
| 2026-05-08 00:30 | 36.06810 | -119.42134 | 36014 ft | 414 kts | 346° |
| 2026-05-08 00:30 | 36.12424 | -119.43830 | 36016 ft | 415 kts | 346° |
| 2026-05-08 00:31 | 36.18039 | -119.45546 | 36015 ft | 416 kts | 346° |
| 2026-05-08 00:31 | 36.23656 | -119.47259 | 36015 ft | 416 kts | 346° |
| 2026-05-08 00:32 | 36.29275 | -119.48986 | 36015 ft | 416 kts | 346° |
| 2026-05-08 00:32 | 36.34878 | -119.50695 | 36015 ft | 416 kts | 346° |
| 2026-05-08 00:33 | 36.40508 | -119.52423 | 36016 ft | 416 kts | 346° |
| 2026-05-08 00:33 | 36.46140 | -119.54139 | 36016 ft | 416 kts | 346° |
| 2026-05-08 00:34 | 36.51768 | -119.55869 | 36016 ft | 416 kts | 346° |
| 2026-05-08 00:34 | 36.57392 | -119.57597 | 36016 ft | 416 kts | 346° |
| 2026-05-08 00:35 | 36.63021 | -119.59324 | 36014 ft | 416 kts | 346° |
| 2026-05-08 00:35 | 36.68648 | -119.61064 | 36011 ft | 416 kts | 346° |
| 2026-05-08 00:36 | 36.74273 | -119.62799 | 36009 ft | 416 kts | 346° |
| 2026-05-08 00:36 | 36.79864 | -119.64528 | 36007 ft | 416 kts | 346° |
| 2026-05-08 00:37 | 36.85490 | -119.66268 | 36007 ft | 417 kts | 346° |
| 2026-05-08 00:38 | 36.93944 | -119.68866 | 36011 ft | 417 kts | 346° |
| 2026-05-08 00:38 | 36.99581 | -119.70613 | 36015 ft | 418 kts | 346° |
| 2026-05-08 00:39 | 37.05235 | -119.72369 | 36019 ft | 418 kts | 346° |
| 2026-05-08 00:39 | 37.10884 | -119.74118 | 36023 ft | 418 kts | 346° |
| 2026-05-08 00:40 | 37.16541 | -119.75863 | 36026 ft | 418 kts | 346° |
| 2026-05-08 00:40 | 37.22162 | -119.77590 | 36029 ft | 418 kts | 346° |
| 2026-05-08 00:41 | 37.27815 | -119.79352 | 36033 ft | 419 kts | 345° |
| 2026-05-08 00:41 | 37.33475 | -119.81146 | 36049 ft | 419 kts | 345° |
| 2026-05-08 00:42 | 37.39141 | -119.82933 | 36059 ft | 420 kts | 345° |
| 2026-05-08 00:42 | 37.44812 | -119.84712 | 36067 ft | 420 kts | 345° |
| 2026-05-08 00:43 | 37.49532 | -119.86211 | 36073 ft | 420 kts | 345° |
| 2026-05-08 00:43 | 37.56135 | -119.88294 | 36082 ft | 421 kts | 345° |
| 2026-05-08 00:44 | 37.61821 | -119.90095 | 36088 ft | 421 kts | 345° |
| 2026-05-08 00:44 | 37.66548 | -119.91583 | 36069 ft | 421 kts | 345° |
| 2026-05-08 00:45 | 37.72236 | -119.93384 | 36063 ft | 421 kts | 345° |
| 2026-05-08 00:45 | 37.77921 | -119.95192 | 36069 ft | 421 kts | 345° |
| 2026-05-08 00:46 | 37.83611 | -119.97001 | 36076 ft | 421 kts | 345° |
| 2026-05-08 00:46 | 37.89268 | -119.98795 | 36082 ft | 422 kts | 345° |
| 2026-05-08 00:47 | 37.94973 | -120.00548 | 36090 ft | 422 kts | 345° |
| 2026-05-08 00:47 | 38.00675 | -120.02337 | 36102 ft | 422 kts | 345° |
| 2026-05-08 00:48 | 38.06368 | -120.04137 | 36123 ft | 421 kts | 345° |
| 2026-05-08 00:48 | 38.12056 | -120.05943 | 36135 ft | 422 kts | 345° |
| 2026-05-08 00:49 | 38.17750 | -120.07798 | 36138 ft | 422 kts | 345° |
| 2026-05-08 00:49 | 38.23320 | -120.09585 | 36142 ft | 421 kts | 344° |
| 2026-05-08 00:50 | 38.29070 | -120.11738 | 36152 ft | 421 kts | 341° |
| 2026-05-08 00:50 | 38.34638 | -120.14073 | 36147 ft | 421 kts | 341° |
| 2026-05-08 00:51 | 38.40174 | -120.16370 | 36155 ft | 421 kts | 341° |
| 2026-05-08 00:51 | 38.45773 | -120.18593 | 36165 ft | 421 kts | 342° |
| 2026-05-08 00:52 | 38.51371 | -120.20768 | 36176 ft | 420 kts | 342° |
| 2026-05-08 00:52 | 38.56972 | -120.22945 | 36186 ft | 420 kts | 341° |
| 2026-05-08 00:53 | 38.62561 | -120.25177 | 36194 ft | 421 kts | 342° |
| 2026-05-08 00:53 | 38.68152 | -120.27405 | 36201 ft | 420 kts | 341° |
| 2026-05-08 00:54 | 38.73740 | -120.29613 | 36211 ft | 420 kts | 341° |
| 2026-05-08 00:54 | 38.79324 | -120.31835 | 36223 ft | 420 kts | 342° |
| 2026-05-08 00:55 | 38.84903 | -120.34067 | 36226 ft | 420 kts | 341° |
| 2026-05-08 00:55 | 38.90489 | -120.36294 | 36227 ft | 420 kts | 341° |
| 2026-05-08 00:56 | 38.96042 | -120.38520 | 36233 ft | 420 kts | 341° |
| 2026-05-08 00:56 | 39.01611 | -120.40757 | 36236 ft | 419 kts | 342° |
| 2026-05-08 00:57 | 39.07188 | -120.42988 | 36240 ft | 419 kts | 341° |
| 2026-05-08 00:57 | 39.12750 | -120.45245 | 36244 ft | 419 kts | 341° |
| 2026-05-08 00:58 | 39.18319 | -120.47480 | 36249 ft | 419 kts | 341° |
| 2026-05-08 00:58 | 39.23883 | -120.49719 | 36253 ft | 419 kts | 341° |
| 2026-05-08 00:59 | 39.29409 | -120.51951 | 36257 ft | 418 kts | 341° |
| 2026-05-08 00:59 | 39.34958 | -120.54198 | 36257 ft | 418 kts | 341° |
| 2026-05-08 01:00 | 39.40515 | -120.56451 | 36253 ft | 418 kts | 341° |
| 2026-05-08 01:00 | 39.46070 | -120.58703 | 36245 ft | 418 kts | 341° |
| 2026-05-08 01:01 | 39.51624 | -120.60956 | 36241 ft | 418 kts | 341° |
| 2026-05-08 01:01 | 39.57177 | -120.63209 | 36238 ft | 418 kts | 341° |
| 2026-05-08 01:02 | 39.62731 | -120.65460 | 36230 ft | 418 kts | 341° |
| 2026-05-08 01:02 | 39.68287 | -120.67703 | 36219 ft | 417 kts | 341° |
| 2026-05-08 01:03 | 39.73835 | -120.69953 | 36207 ft | 417 kts | 341° |
| 2026-05-08 01:03 | 39.79369 | -120.72253 | 36175 ft | 418 kts | 341° |
| 2026-05-08 01:04 | 39.84915 | -120.74527 | 36157 ft | 417 kts | 341° |
| 2026-05-08 01:04 | 39.90451 | -120.76832 | 36140 ft | 418 kts | 341° |
| 2026-05-08 01:05 | 39.95952 | -120.79102 | 36131 ft | 418 kts | 341° |
| 2026-05-08 01:05 | 40.01511 | -120.81384 | 36125 ft | 418 kts | 341° |
| 2026-05-08 01:06 | 40.07038 | -120.83707 | 36120 ft | 417 kts | 341° |
| 2026-05-08 01:06 | 40.12571 | -120.85986 | 36117 ft | 416 kts | 341° |
| 2026-05-08 01:07 | 40.18091 | -120.88289 | 36115 ft | 417 kts | 341° |
| 2026-05-08 01:07 | 40.23627 | -120.90592 | 36114 ft | 417 kts | 341° |
| 2026-05-08 01:08 | 40.29123 | -120.92886 | 36113 ft | 417 kts | 341° |
| 2026-05-08 01:08 | 40.34650 | -120.95188 | 36111 ft | 417 kts | 341° |
| 2026-05-08 01:09 | 40.40183 | -120.97498 | 36104 ft | 417 kts | 341° |
| 2026-05-08 01:09 | 40.45717 | -120.99816 | 36099 ft | 417 kts | 341° |
| 2026-05-08 01:10 | 40.51246 | -121.02128 | 36096 ft | 417 kts | 341° |
| 2026-05-08 01:10 | 40.56772 | -121.04451 | 36103 ft | 417 kts | 340° |
| 2026-05-08 01:11 | 40.62295 | -121.06777 | 36104 ft | 417 kts | 341° |
| 2026-05-08 01:11 | 40.67818 | -121.09100 | 36103 ft | 416 kts | 341° |
| 2026-05-08 01:12 | 40.73341 | -121.11424 | 36103 ft | 416 kts | 341° |
| 2026-05-08 01:12 | 40.78863 | -121.13746 | 36095 ft | 416 kts | 341° |
| 2026-05-08 01:13 | 40.84352 | -121.16052 | 36090 ft | 416 kts | 341° |
| 2026-05-08 01:13 | 40.89868 | -121.18361 | 36089 ft | 415 kts | 341° |
| 2026-05-08 01:14 | 40.95379 | -121.20690 | 36089 ft | 415 kts | 340° |
| 2026-05-08 01:14 | 41.00878 | -121.23050 | 36089 ft | 415 kts | 340° |
| 2026-05-08 01:15 | 41.06380 | -121.25415 | 36089 ft | 415 kts | 340° |
| 2026-05-08 01:15 | 41.11877 | -121.27770 | 36090 ft | 415 kts | 340° |
| 2026-05-08 01:16 | 41.17375 | -121.30128 | 36090 ft | 415 kts | 340° |
| 2026-05-08 01:16 | 41.22865 | -121.32497 | 36091 ft | 414 kts | 340° |
| 2026-05-08 01:17 | 41.28352 | -121.34848 | 36092 ft | 414 kts | 340° |
| 2026-05-08 01:17 | 41.33805 | -121.37195 | 36097 ft | 414 kts | 340° |
| 2026-05-08 01:18 | 41.39287 | -121.39567 | 36107 ft | 414 kts | 340° |
| 2026-05-08 01:18 | 41.44772 | -121.41958 | 36108 ft | 414 kts | 340° |
| 2026-05-08 01:19 | 41.50254 | -121.44319 | 36109 ft | 414 kts | 340° |
| 2026-05-08 01:19 | 41.55731 | -121.46698 | 36111 ft | 414 kts | 340° |
| 2026-05-08 01:20 | 41.61209 | -121.49070 | 36111 ft | 414 kts | 340° |
| 2026-05-08 01:20 | 41.66687 | -121.51447 | 36112 ft | 413 kts | 340° |
| 2026-05-08 01:21 | 41.72163 | -121.53828 | 36112 ft | 414 kts | 340° |
| 2026-05-08 01:21 | 41.77639 | -121.56219 | 36113 ft | 414 kts | 340° |
| 2026-05-08 01:22 | 41.83117 | -121.58596 | 36111 ft | 414 kts | 340° |
| 2026-05-08 01:22 | 41.88610 | -121.60916 | 36107 ft | 414 kts | 340° |
| 2026-05-08 01:23 | 41.94089 | -121.63281 | 36108 ft | 414 kts | 340° |
| 2026-05-08 01:23 | 41.99568 | -121.65677 | 36111 ft | 414 kts | 340° |
| 2026-05-08 01:24 | 42.05034 | -121.68101 | 36113 ft | 413 kts | 339° |
| 2026-05-08 01:24 | 42.10499 | -121.70523 | 36114 ft | 413 kts | 340° |
| 2026-05-08 01:25 | 42.15953 | -121.72969 | 36115 ft | 413 kts | 339° |
| 2026-05-08 01:25 | 42.21301 | -121.75655 | 36115 ft | 412 kts | 337° |
| 2026-05-08 01:26 | 42.26653 | -121.78451 | 36113 ft | 412 kts | 337° |
| 2026-05-08 01:26 | 42.32045 | -121.81210 | 36110 ft | 412 kts | 338° |
| 2026-05-08 01:27 | 42.37429 | -121.83872 | 36106 ft | 412 kts | 338° |
| 2026-05-08 01:27 | 42.42808 | -121.86526 | 36107 ft | 411 kts | 338° |
| 2026-05-08 01:28 | 42.47266 | -121.88771 | 36108 ft | 411 kts | 338° |
| 2026-05-08 01:28 | 42.53502 | -121.91891 | 36106 ft | 410 kts | 337° |
| 2026-05-08 01:29 | 42.57987 | -121.94162 | 36099 ft | 410 kts | 337° |
| 2026-05-08 01:29 | 42.63331 | -121.96868 | 36091 ft | 409 kts | 337° |
| 2026-05-08 01:30 | 42.68630 | -121.99544 | 36088 ft | 408 kts | 337° |
| 2026-05-08 01:30 | 42.73962 | -122.02228 | 36086 ft | 409 kts | 337° |
| 2026-05-08 01:31 | 42.79313 | -122.04910 | 36086 ft | 410 kts | 337° |
| 2026-05-08 01:31 | 42.84670 | -122.07579 | 36085 ft | 409 kts | 337° |
| 2026-05-08 01:32 | 42.90004 | -122.10250 | 36085 ft | 408 kts | 336° |
| 2026-05-08 01:32 | 42.95317 | -122.12975 | 36085 ft | 407 kts | 336° |
| 2026-05-08 01:33 | 43.00623 | -122.15703 | 36087 ft | 407 kts | 336° |
| 2026-05-08 01:33 | 43.05935 | -122.18422 | 36088 ft | 407 kts | 336° |
| 2026-05-08 01:34 | 43.11234 | -122.21120 | 36089 ft | 406 kts | 336° |
| 2026-05-08 01:34 | 43.16526 | -122.23823 | 36091 ft | 405 kts | 336° |
| 2026-05-08 01:35 | 43.21791 | -122.26568 | 36093 ft | 404 kts | 336° |
| 2026-05-08 01:35 | 43.27050 | -122.29280 | 36099 ft | 404 kts | 336° |
| 2026-05-08 01:36 | 43.32310 | -122.32008 | 36108 ft | 403 kts | 336° |
| 2026-05-08 01:36 | 43.37524 | -122.34701 | 36109 ft | 403 kts | 335° |
| 2026-05-08 01:37 | 43.42766 | -122.37435 | 36109 ft | 402 kts | 335° |
| 2026-05-08 01:37 | 43.47997 | -122.40160 | 36108 ft | 402 kts | 335° |
| 2026-05-08 01:38 | 43.53231 | -122.42883 | 36108 ft | 402 kts | 335° |
| 2026-05-08 01:38 | 43.58460 | -122.45593 | 36108 ft | 401 kts | 335° |
| 2026-05-08 01:39 | 43.63690 | -122.48299 | 36107 ft | 401 kts | 335° |
| 2026-05-08 01:39 | 43.68926 | -122.51006 | 36106 ft | 402 kts | 335° |
| 2026-05-08 01:40 | 43.74155 | -122.53726 | 36105 ft | 401 kts | 335° |
| 2026-05-08 01:40 | 43.79360 | -122.56486 | 36104 ft | 401 kts | 335° |
| 2026-05-08 01:41 | 43.84577 | -122.59233 | 36102 ft | 401 kts | 335° |
| 2026-05-08 01:41 | 43.89801 | -122.61988 | 36100 ft | 401 kts | 335° |
| 2026-05-08 01:41 | 43.92422 | -122.63361 | 35894 ft | 405 kts | 335° |
| 2026-05-08 01:42 | 43.95076 | -122.64748 | 35418 ft | 410 kts | 335° |
| 2026-05-08 01:42 | 43.97749 | -122.66167 | 34818 ft | 411 kts | 335° |
| 2026-05-08 01:42 | 44.00383 | -122.67555 | 34191 ft | 409 kts | 335° |
| 2026-05-08 01:42 | 44.03034 | -122.68962 | 33584 ft | 406 kts | 335° |
| 2026-05-08 01:43 | 44.05653 | -122.70363 | 33024 ft | 402 kts | 335° |
| 2026-05-08 01:43 | 44.08250 | -122.71758 | 32475 ft | 398 kts | 335° |
| 2026-05-08 01:43 | 44.10821 | -122.73121 | 31911 ft | 394 kts | 335° |
| 2026-05-08 01:43 | 44.13380 | -122.74457 | 31344 ft | 392 kts | 336° |
| 2026-05-08 01:44 | 44.16065 | -122.75340 | 30798 ft | 404 kts | 348° |
| 2026-05-08 01:44 | 44.18945 | -122.75604 | 30291 ft | 426 kts | 355° |
| 2026-05-08 01:44 | 44.21972 | -122.75445 | 29753 ft | 442 kts | 0° |
| 2026-05-08 01:44 | 44.25038 | -122.75018 | 29131 ft | 441 kts | 3° |
| 2026-05-08 01:45 | 44.28067 | -122.74482 | 28407 ft | 436 kts | 4° |
| 2026-05-08 01:45 | 44.31067 | -122.73939 | 27632 ft | 432 kts | 4° |
| 2026-05-08 01:45 | 44.34040 | -122.73448 | 26887 ft | 428 kts | 2° |
| 2026-05-08 01:45 | 44.36985 | -122.73030 | 26196 ft | 422 kts | 2° |
| 2026-05-08 01:46 | 44.39897 | -122.72685 | 25566 ft | 416 kts | 1° |
| 2026-05-08 01:46 | 44.42755 | -122.72400 | 24977 ft | 409 kts | 0° |
| 2026-05-08 01:46 | 44.45571 | -122.72148 | 24375 ft | 403 kts | 0° |
| 2026-05-08 01:46 | 44.48356 | -122.71915 | 23750 ft | 398 kts | 0° |
| 2026-05-08 01:47 | 44.51110 | -122.71689 | 23113 ft | 394 kts | 0° |
| 2026-05-08 01:47 | 44.53834 | -122.71441 | 22549 ft | 388 kts | 0° |
| 2026-05-08 01:47 | 44.56466 | -122.71178 | 22334 ft | 370 kts | 0° |
| 2026-05-08 01:48 | 44.61367 | -122.70695 | 21931 ft | 347 kts | 0° |
| 2026-05-08 01:48 | 44.63834 | -122.70471 | 21287 ft | 366 kts | 0° |
| 2026-05-08 01:48 | 44.66419 | -122.70228 | 20555 ft | 373 kts | 0° |
| 2026-05-08 01:48 | 44.68999 | -122.69966 | 19848 ft | 369 kts | 1° |
| 2026-05-08 01:49 | 44.71525 | -122.69697 | 19191 ft | 359 kts | 1° |
| 2026-05-08 01:49 | 44.73989 | -122.69438 | 18583 ft | 350 kts | 0° |
| 2026-05-08 01:49 | 44.76381 | -122.69205 | 18138 ft | 338 kts | 0° |
| 2026-05-08 01:49 | 44.78660 | -122.68983 | 17990 ft | 319 kts | 360° |
| 2026-05-08 01:50 | 44.80865 | -122.68763 | 17903 ft | 322 kts | 360° |
| 2026-05-08 01:50 | 44.83208 | -122.68541 | 17532 ft | 354 kts | 360° |
| 2026-05-08 01:50 | 44.85728 | -122.68306 | 16731 ft | 367 kts | 0° |
| 2026-05-08 01:50 | 44.88258 | -122.68046 | 15963 ft | 361 kts | 1° |
| 2026-05-08 01:51 | 44.90730 | -122.67778 | 15302 ft | 350 kts | 1° |
| 2026-05-08 01:51 | 44.93111 | -122.67514 | 14725 ft | 335 kts | 0° |
| 2026-05-08 01:51 | 44.95368 | -122.67279 | 14451 ft | 314 kts | 0° |
| 2026-05-08 01:51 | 44.97477 | -122.67063 | 14356 ft | 296 kts | 0° |
| 2026-05-08 01:52 | 44.99513 | -122.66852 | 14022 ft | 290 kts | 0° |
| 2026-05-08 01:52 | 45.01483 | -122.66434 | 13602 ft | 293 kts | 15° |
| 2026-05-08 01:52 | 45.03170 | -122.64798 | 13082 ft | 303 kts | 44° |
| 2026-05-08 01:52 | 45.04372 | -122.62324 | 12552 ft | 308 kts | 58° |
| 2026-05-08 01:53 | 45.05337 | -122.59620 | 12104 ft | 307 kts | 62° |
| 2026-05-08 01:53 | 45.06201 | -122.56886 | 11766 ft | 302 kts | 64° |
| 2026-05-08 01:53 | 45.07021 | -122.54171 | 11394 ft | 298 kts | 65° |
| 2026-05-08 01:53 | 45.07823 | -122.51486 | 11001 ft | 295 kts | 65° |
| 2026-05-08 01:54 | 45.08618 | -122.48823 | 10595 ft | 292 kts | 65° |
| 2026-05-08 01:54 | 45.09408 | -122.46185 | 10176 ft | 290 kts | 65° |
| 2026-05-08 01:54 | 45.10195 | -122.43577 | 9751 ft | 287 kts | 65° |
| 2026-05-08 01:54 | 45.10979 | -122.40997 | 9332 ft | 284 kts | 65° |
| 2026-05-08 01:55 | 45.11763 | -122.38433 | 8912 ft | 282 kts | 65° |
| 2026-05-08 01:55 | 45.12551 | -122.35901 | 8478 ft | 280 kts | 63° |
| 2026-05-08 01:55 | 45.13743 | -122.33789 | 7996 ft | 275 kts | 35° |
| 2026-05-08 01:55 | 45.15393 | -122.32516 | 7625 ft | 268 kts | 21° |
| 2026-05-08 01:56 | 45.17134 | -122.31581 | 7166 ft | 267 kts | 17° |
| 2026-05-08 01:56 | 45.18893 | -122.30759 | 6757 ft | 265 kts | 15° |
| 2026-05-08 01:56 | 45.20646 | -122.29980 | 6334 ft | 263 kts | 15° |
| 2026-05-08 01:56 | 45.22368 | -122.29231 | 5926 ft | 262 kts | 15° |
| 2026-05-08 01:57 | 45.24106 | -122.28480 | 5515 ft | 260 kts | 15° |
| 2026-05-08 01:57 | 45.25836 | -122.27738 | 5170 ft | 257 kts | 15° |
| 2026-05-08 01:57 | 45.27539 | -122.27010 | 4920 ft | 258 kts | 15° |
| 2026-05-08 01:57 | 45.29261 | -122.26278 | 4757 ft | 257 kts | 15° |
| 2026-05-08 01:58 | 45.30977 | -122.25561 | 4605 ft | 257 kts | 13° |
| 2026-05-08 01:58 | 45.32737 | -122.25566 | 4368 ft | 255 kts | 343° |
| 2026-05-08 01:58 | 45.34349 | -122.26555 | 4266 ft | 251 kts | 330° |
| 2026-05-08 01:58 | 45.35773 | -122.27752 | 4146 ft | 250 kts | 327° |
| 2026-05-08 01:59 | 45.37200 | -122.29062 | 4036 ft | 249 kts | 326° |
| 2026-05-08 01:59 | 45.38640 | -122.30424 | 4002 ft | 249 kts | 325° |
| 2026-05-08 01:59 | 45.40085 | -122.31805 | 3996 ft | 250 kts | 325° |
| 2026-05-08 01:59 | 45.41525 | -122.33183 | 3994 ft | 250 kts | 325° |
| 2026-05-08 02:00 | 45.42966 | -122.34564 | 3994 ft | 250 kts | 325° |
| 2026-05-08 02:00 | 45.44408 | -122.35946 | 3993 ft | 250 kts | 325° |
| 2026-05-08 02:00 | 45.45757 | -122.37238 | 3988 ft | 250 kts | 325° |
| 2026-05-08 02:00 | 45.47213 | -122.38635 | 3912 ft | 254 kts | 325° |
| 2026-05-08 02:01 | 45.48694 | -122.40056 | 3626 ft | 258 kts | 325° |
| 2026-05-08 02:01 | 45.50179 | -122.41480 | 3291 ft | 255 kts | 325° |
| 2026-05-08 02:01 | 45.51605 | -122.42851 | 2913 ft | 246 kts | 325° |
| 2026-05-08 02:01 | 45.52821 | -122.44503 | 2515 ft | 235 kts | 303° |
| 2026-05-08 02:02 | 45.53495 | -122.46521 | 2168 ft | 217 kts | 291° |
| 2026-05-08 02:02 | 45.54067 | -122.48444 | 1765 ft | 206 kts | 297° |
| 2026-05-08 02:02 | 45.54789 | -122.50136 | 1417 ft | 194 kts | 303° |
| 2026-05-08 02:02 | 45.55485 | -122.51757 | 1067 ft | 185 kts | 299° |
| 2026-05-08 02:03 | 45.56044 | -122.53282 | 937 ft | 164 kts | 297° |
| 2026-05-08 02:03 | 45.56571 | -122.54654 | 664 ft | 156 kts | 300° |
| 2026-05-08 02:03 | 45.57114 | -122.55961 | 420 ft | 148 kts | 300° |
| 2026-05-08 02:03 | 45.57592 | -122.57204 | 235 ft | 138 kts | 299° |
| 2026-05-08 02:04 | 45.58079 | -122.58469 | 107 ft | 155 kts | 300° |
| 2026-05-08 02:04 | 45.58583 | -122.59772 | 40 ft | 139 kts | 299° |
| 2026-05-08 02:04 | 45.58943 | -122.60689 | 40 ft | 73 kts | 299° |
| 2026-05-08 02:04 | 45.59116 | -122.61133 | 40 ft | 29 kts | 299° |
| 2026-05-08 02:05 | 45.59230 | -122.61326 | 40 ft | 19 kts | 346° |
| 2026-05-08 02:05 | 45.59318 | -122.61280 | 40 ft | 13 kts | 60° |
| 2026-05-08 02:05 | 45.59318 | -122.61149 | 40 ft | 14 kts | 118° |
| 2026-05-08 02:05 | 45.59266 | -122.61020 | 40 ft | 16 kts | 120° |
| 2026-05-08 02:06 | 45.59209 | -122.60877 | 40 ft | 17 kts | 119° |
| 2026-05-08 02:06 | 45.59150 | -122.60724 | 40 ft | 17 kts | 115° |
| 2026-05-08 02:06 | 45.59139 | -122.60570 | 40 ft | 14 kts | 91° |
| 2026-05-08 02:06 | 45.59138 | -122.60425 | 40 ft | 16 kts | 89° |
| 2026-05-08 02:07 | 45.59140 | -122.60277 | 40 ft | 14 kts | 89° |
| 2026-05-08 02:07 | 45.59139 | -122.60148 | 40 ft | 13 kts | 91° |
| 2026-05-08 02:07 | 45.59138 | -122.60008 | 40 ft | 15 kts | 89° |
| 2026-05-08 02:07 | 45.59183 | -122.59874 | 40 ft | 16 kts | 37° |
| 2026-05-08 02:08 | 45.59271 | -122.59796 | 40 ft | 15 kts | 36° |
| 2026-05-08 02:08 | 45.59304 | -122.59659 | 40 ft | 14 kts | 93° |
| 2026-05-08 02:08 | 45.59263 | -122.59586 | 40 ft | 4 kts | 185° |
| 2026-05-08 02:08 | 45.59242 | -122.59585 | 40 ft | 1 kts | 145° |
| 2026-05-08 02:09 | 45.59226 | -122.59567 | 40 ft | 5 kts | 142° |
| 2026-05-08 02:09 | 45.59206 | -122.59568 | 40 ft | 2 kts | 216° |
| 2026-05-08 02:09 | 45.59196 | -122.59586 | 40 ft | 2 kts | 237° |
| 2026-05-08 02:09 | 45.59196 | -122.59587 | 40 ft | 0 kts | 237° |